createdAt,value
2023-05-02T00:00:23.609Z,544.00
2023-05-02T00:01:23.606Z,544.00
2023-05-02T00:02:23.674Z,542.00
2023-05-02T00:03:23.689Z,544.00
2023-05-02T00:04:23.697Z,545.00
2023-05-02T00:05:23.592Z,547.00
2023-05-02T00:06:23.600Z,550.00
2023-05-02T00:07:23.558Z,549.00
2023-05-02T00:08:23.547Z,549.00
2023-05-02T00:09:23.544Z,548.00
2023-05-02T00:10:23.536Z,548.00
2023-05-02T00:11:23.531Z,547.00
2023-05-02T00:12:23.515Z,545.00
2023-05-02T00:13:23.621Z,542.00
2023-05-02T00:14:23.510Z,543.00
2023-05-02T00:15:23.498Z,542.00
2023-05-02T00:16:23.519Z,540.00
2023-05-02T00:17:23.599Z,537.00
2023-05-02T00:18:23.478Z,535.00
2023-05-02T00:19:23.478Z,534.00
2023-05-02T00:20:23.465Z,536.00
2023-05-02T00:21:23.446Z,539.00
2023-05-02T00:22:23.440Z,541.00
2023-05-02T00:23:23.841Z,542.00
2023-05-02T00:24:23.445Z,541.00
2023-05-02T00:25:23.448Z,541.00
2023-05-02T00:26:23.483Z,542.00
2023-05-02T00:27:23.494Z,544.00
2023-05-02T00:28:23.508Z,544.00
2023-05-02T00:29:23.554Z,547.00
2023-05-02T00:30:23.541Z,546.00
2023-05-02T00:31:23.580Z,544.00
2023-05-02T00:32:23.581Z,544.00
2023-05-02T00:33:23.589Z,544.00
2023-05-02T00:34:23.610Z,544.00
2023-05-02T00:35:23.641Z,543.00
2023-05-02T00:36:23.649Z,542.00
2023-05-02T00:37:23.663Z,542.00
2023-05-02T00:38:23.685Z,542.00
2023-05-02T00:39:23.717Z,542.00
2023-05-02T00:40:23.726Z,543.00
2023-05-02T00:41:23.741Z,546.00
2023-05-02T00:42:23.770Z,547.00
2023-05-02T00:43:23.772Z,549.00
2023-05-02T00:44:23.798Z,548.00
2023-05-02T00:45:23.937Z,545.00
2023-05-02T00:46:23.886Z,547.00
2023-05-02T00:47:23.934Z,549.00
2023-05-02T00:48:23.873Z,549.00
2023-05-02T00:49:23.899Z,550.00
2023-05-02T00:50:23.922Z,549.00
2023-05-02T00:51:23.937Z,549.00
2023-05-02T00:52:23.952Z,549.00
2023-05-02T00:53:23.969Z,549.00
2023-05-02T00:54:23.989Z,550.00
2023-05-02T00:55:24.009Z,549.00
2023-05-02T00:56:24.029Z,550.00
2023-05-02T00:57:24.044Z,548.00
2023-05-02T00:58:24.060Z,544.00
2023-05-02T00:59:24.082Z,544.00
2023-05-02T01:00:24.104Z,543.00
2023-05-02T01:01:24.176Z,544.00
2023-05-02T01:02:24.242Z,542.00
2023-05-02T01:03:24.191Z,542.00
2023-05-02T01:04:24.166Z,542.00
2023-05-02T01:05:24.180Z,540.00
2023-05-02T01:06:24.262Z,541.00
2023-05-02T01:07:24.208Z,542.00
2023-05-02T01:08:24.221Z,541.00
2023-05-02T01:09:24.242Z,542.00
2023-05-02T01:10:24.285Z,540.00
2023-05-02T01:11:24.283Z,542.00
2023-05-02T01:12:24.285Z,546.00
2023-05-02T01:13:24.307Z,548.00
2023-05-02T01:14:24.322Z,547.00
2023-05-02T01:15:24.367Z,546.00
2023-05-02T01:16:24.407Z,545.00
2023-05-02T01:17:24.491Z,546.00
2023-05-02T01:18:24.386Z,547.00
2023-05-02T01:19:24.406Z,546.00
2023-05-02T01:20:24.420Z,544.00
2023-05-02T01:21:24.445Z,545.00
2023-05-02T01:22:25.122Z,544.00
2023-05-02T01:23:24.478Z,544.00
2023-05-02T01:24:24.506Z,543.00
2023-05-02T01:25:24.525Z,542.00
2023-05-02T01:26:24.545Z,542.00
2023-05-02T01:27:24.549Z,543.00
2023-05-02T01:28:24.563Z,545.00
2023-05-02T01:29:24.592Z,545.00
2023-05-02T01:30:24.603Z,544.00
2023-05-02T01:31:24.679Z,545.00
2023-05-02T01:32:24.652Z,547.00
2023-05-02T01:33:24.674Z,547.00
2023-05-02T01:34:24.670Z,546.00
2023-05-02T01:35:24.687Z,547.00
2023-05-02T01:36:24.708Z,545.00
2023-05-02T01:37:24.734Z,543.00
2023-05-02T01:38:24.743Z,542.00
2023-05-02T01:39:24.766Z,541.00
2023-05-02T01:40:24.782Z,542.00
2023-05-02T01:41:24.792Z,542.00
2023-05-02T01:42:24.817Z,542.00
2023-05-02T01:43:24.840Z,542.00
2023-05-02T01:44:24.847Z,541.00
2023-05-02T01:45:24.878Z,541.00
2023-05-02T01:46:24.903Z,543.00
2023-05-02T01:47:24.913Z,544.00
2023-05-02T01:48:24.908Z,542.00
2023-05-02T01:49:24.957Z,543.00
2023-05-02T01:50:24.952Z,542.00
2023-05-02T01:51:24.966Z,541.00
2023-05-02T01:52:25.000Z,539.00
2023-05-02T01:53:25.003Z,539.00
2023-05-02T01:54:25.050Z,537.00
2023-05-02T01:55:25.042Z,540.00
2023-05-02T01:56:25.052Z,540.00
2023-05-02T01:57:25.080Z,543.00
2023-05-02T01:58:25.100Z,544.00
2023-05-02T01:59:25.141Z,542.00
2023-05-02T02:00:25.149Z,540.00
2023-05-02T02:01:25.195Z,539.00
2023-05-02T02:02:25.186Z,537.00
2023-05-02T02:03:25.234Z,537.00
2023-05-02T02:04:25.354Z,537.00
2023-05-02T02:05:25.249Z,537.00
2023-05-02T02:06:25.247Z,536.00
2023-05-02T02:07:25.275Z,532.00
2023-05-02T02:08:25.287Z,534.00
2023-05-02T02:09:25.301Z,534.00
2023-05-02T02:10:25.327Z,533.00
2023-05-02T02:11:25.354Z,534.00
2023-05-02T02:12:25.369Z,534.00
2023-05-02T02:13:25.405Z,535.00
2023-05-02T02:14:25.457Z,538.00
2023-05-02T02:15:25.458Z,540.00
2023-05-02T02:16:25.571Z,540.00
2023-05-02T02:17:25.538Z,539.00
2023-05-02T02:18:25.504Z,540.00
2023-05-02T02:19:25.536Z,542.00
2023-05-02T02:20:25.549Z,544.00
2023-05-02T02:21:25.595Z,544.00
2023-05-02T02:22:25.591Z,543.00
2023-05-02T02:23:25.616Z,542.00
2023-05-02T02:24:25.646Z,543.00
2023-05-02T02:25:25.668Z,542.00
2023-05-02T02:26:25.685Z,542.00
2023-05-02T02:27:25.711Z,542.00
2023-05-02T02:28:25.731Z,543.00
2023-05-02T02:29:25.760Z,541.00
2023-05-02T02:30:25.784Z,537.00
2023-05-02T02:31:25.888Z,537.00
2023-05-02T02:32:25.887Z,538.00
2023-05-02T02:33:25.856Z,539.00
2023-05-02T02:34:25.877Z,540.00
2023-05-02T02:35:25.901Z,540.00
2023-05-02T02:36:25.931Z,542.00
2023-05-02T02:37:25.985Z,542.00
2023-05-02T02:38:25.984Z,545.00
2023-05-02T02:39:26.003Z,545.00
2023-05-02T02:40:26.025Z,543.00
2023-05-02T02:41:26.044Z,546.00
2023-05-02T02:42:26.062Z,541.00
2023-05-02T02:43:26.080Z,540.00
2023-05-02T02:44:26.109Z,540.00
2023-05-02T02:45:26.129Z,537.00
2023-05-02T02:46:26.166Z,535.00
2023-05-02T02:47:26.182Z,537.00
2023-05-02T02:48:26.189Z,535.00
2023-05-02T02:49:26.218Z,537.00
2023-05-02T02:50:26.234Z,538.00
2023-05-02T02:51:26.254Z,540.00
2023-05-02T02:52:26.273Z,539.00
2023-05-02T02:53:26.324Z,540.00
2023-05-02T02:54:27.287Z,540.00
2023-05-02T02:55:26.349Z,541.00
2023-05-02T02:56:26.380Z,542.00
2023-05-02T02:57:26.395Z,543.00
2023-05-02T02:58:26.420Z,542.00
2023-05-02T02:59:26.443Z,540.00
2023-05-02T03:00:26.463Z,541.00
2023-05-02T03:01:26.512Z,542.00
2023-05-02T03:02:26.507Z,542.00
2023-05-02T03:03:26.640Z,542.00
2023-05-02T03:04:26.556Z,544.00
2023-05-02T03:05:26.577Z,545.00
2023-05-02T03:06:26.667Z,544.00
2023-05-02T03:07:26.627Z,545.00
2023-05-02T03:08:26.640Z,542.00
2023-05-02T03:09:26.690Z,541.00
2023-05-02T03:10:26.687Z,540.00
2023-05-02T03:11:27.724Z,540.00
2023-05-02T03:12:26.704Z,540.00
2023-05-02T03:13:26.704Z,537.00
2023-05-02T03:14:26.705Z,535.00
2023-05-02T03:15:26.680Z,535.00
2023-05-02T03:16:26.680Z,535.00
2023-05-02T03:17:26.667Z,536.00
2023-05-02T03:18:26.657Z,538.00
2023-05-02T03:19:26.889Z,539.00
2023-05-02T03:20:26.657Z,540.00
2023-05-02T03:21:26.652Z,540.00
2023-05-02T03:22:26.647Z,541.00
2023-05-02T03:23:26.640Z,543.00
2023-05-02T03:24:26.632Z,544.00
2023-05-02T03:25:26.753Z,543.00
2023-05-02T03:26:26.616Z,541.00
2023-05-02T03:27:26.619Z,541.00
2023-05-02T03:28:26.605Z,539.00
2023-05-02T03:29:26.579Z,540.00
2023-05-02T03:30:26.583Z,542.00
2023-05-02T03:31:26.984Z,543.00
2023-05-02T03:32:26.686Z,541.00
2023-05-02T03:33:26.553Z,541.00
2023-05-02T03:34:26.555Z,543.00
2023-05-02T03:35:26.541Z,542.00
2023-05-02T03:36:26.556Z,545.00
2023-05-02T03:37:26.526Z,545.00
2023-05-02T03:38:26.514Z,544.00
2023-05-02T03:39:26.517Z,546.00
2023-05-02T03:40:26.498Z,548.00
2023-05-02T03:41:26.536Z,547.00
2023-05-02T03:42:26.498Z,544.00
2023-05-02T03:43:26.505Z,543.00
2023-05-02T03:44:26.481Z,543.00
2023-05-02T03:45:26.470Z,546.00
2023-05-02T03:46:26.540Z,546.00
2023-05-02T03:47:26.484Z,547.00
2023-05-02T03:48:26.446Z,548.00
2023-05-02T03:49:26.452Z,548.00
2023-05-02T03:50:26.446Z,549.00
2023-05-02T03:51:26.435Z,551.00
2023-05-02T03:52:26.415Z,549.00
2023-05-02T03:53:26.405Z,549.00
2023-05-02T03:54:26.419Z,550.00
2023-05-02T03:55:26.400Z,547.00
2023-05-02T03:56:26.404Z,545.00
2023-05-02T03:57:26.439Z,545.00
2023-05-02T03:58:26.396Z,545.00
2023-05-02T03:59:26.467Z,547.00
2023-05-02T04:00:26.471Z,550.00
2023-05-02T04:01:26.500Z,548.00
2023-05-02T04:02:26.590Z,549.00
2023-05-02T04:03:29.330Z,550.00
2023-05-02T04:04:26.602Z,550.00
2023-05-02T04:05:26.538Z,549.00
2023-05-02T04:06:26.579Z,550.00
2023-05-02T04:07:26.525Z,551.00
2023-05-02T04:08:26.504Z,550.00
2023-05-02T04:09:26.508Z,549.00
2023-05-02T04:10:26.493Z,546.00
2023-05-02T04:11:26.483Z,547.00
2023-05-02T04:12:26.495Z,546.00
2023-05-02T04:13:26.526Z,545.00
2023-05-02T04:14:26.461Z,544.00
2023-05-02T04:15:26.451Z,545.00
2023-05-02T04:16:26.460Z,546.00
2023-05-02T04:17:26.500Z,546.00
2023-05-02T04:18:26.439Z,546.00
2023-05-02T04:19:26.415Z,545.00
2023-05-02T04:20:26.415Z,545.00
2023-05-02T04:21:26.846Z,545.00
2023-05-02T04:22:26.442Z,547.00
2023-05-02T04:23:26.391Z,546.00
2023-05-02T04:24:26.380Z,547.00
2023-05-02T04:25:26.378Z,548.00
2023-05-02T04:26:26.363Z,548.00
2023-05-02T04:27:26.381Z,545.00
2023-05-02T04:28:26.354Z,546.00
2023-05-02T04:29:26.569Z,547.00
2023-05-02T04:30:26.338Z,548.00
2023-05-02T04:31:26.433Z,548.00
2023-05-02T04:32:26.359Z,547.00
2023-05-02T04:33:26.325Z,548.00
2023-05-02T04:34:26.317Z,547.00
2023-05-02T04:35:26.316Z,544.00
2023-05-02T04:36:26.297Z,545.00
2023-05-02T04:37:26.304Z,544.00
2023-05-02T04:38:26.282Z,546.00
2023-05-02T04:39:26.297Z,547.00
2023-05-02T04:40:26.312Z,549.00
2023-05-02T04:41:26.337Z,548.00
2023-05-02T04:42:26.371Z,548.00
2023-05-02T04:43:26.388Z,550.00
2023-05-02T04:44:26.420Z,552.00
2023-05-02T04:45:26.459Z,551.00
2023-05-02T04:46:26.494Z,551.00
2023-05-02T04:47:26.533Z,551.00
2023-05-02T04:48:26.537Z,550.00
2023-05-02T04:49:26.583Z,549.00
2023-05-02T04:50:26.577Z,547.00
2023-05-02T04:51:26.601Z,549.00
2023-05-02T04:52:26.649Z,551.00
2023-05-02T04:53:26.668Z,553.00
2023-05-02T04:54:26.692Z,554.00
2023-05-02T04:55:26.725Z,554.00
2023-05-02T04:56:26.746Z,554.00
2023-05-02T04:57:26.779Z,554.00
2023-05-02T04:58:26.802Z,553.00
2023-05-02T04:59:26.831Z,551.00
2023-05-02T05:00:26.851Z,549.00
2023-05-02T05:01:26.940Z,549.00
2023-05-02T05:02:27.087Z,549.00
2023-05-02T05:03:27.063Z,549.00
2023-05-02T05:04:26.988Z,548.00
2023-05-02T05:05:27.061Z,546.00
2023-05-02T05:06:27.071Z,544.00
2023-05-02T05:07:27.424Z,544.00
2023-05-02T05:08:27.097Z,543.00
2023-05-02T05:09:27.133Z,543.00
2023-05-02T05:10:27.165Z,544.00
2023-05-02T05:11:27.200Z,544.00
2023-05-02T05:12:27.208Z,545.00
2023-05-02T05:13:27.242Z,547.00
2023-05-02T05:14:27.277Z,547.00
2023-05-02T05:15:27.303Z,545.00
2023-05-02T05:16:27.399Z,543.00
2023-05-02T05:17:27.427Z,542.00
2023-05-02T05:18:27.399Z,543.00
2023-05-02T05:19:27.438Z,544.00
2023-05-02T05:20:27.932Z,545.00
2023-05-02T05:21:27.493Z,546.00
2023-05-02T05:22:27.514Z,547.00
2023-05-02T05:23:27.550Z,548.00
2023-05-02T05:24:27.589Z,550.00
2023-05-02T05:25:28.485Z,552.00
2023-05-02T05:26:27.639Z,555.00
2023-05-02T05:27:27.661Z,557.00
2023-05-02T05:28:27.696Z,559.00
2023-05-02T05:29:27.729Z,561.00
2023-05-02T05:30:27.762Z,560.00
2023-05-02T05:31:27.825Z,563.00
2023-05-02T05:32:28.013Z,566.00
2023-05-02T05:33:27.905Z,570.00
2023-05-02T05:34:27.898Z,572.00
2023-05-02T05:35:27.938Z,574.00
2023-05-02T05:36:27.928Z,578.00
2023-05-02T05:37:28.446Z,582.00
2023-05-02T05:38:28.012Z,583.00
2023-05-02T05:39:28.024Z,589.00
2023-05-02T05:40:28.052Z,590.00
2023-05-02T05:41:28.066Z,593.00
2023-05-02T05:42:28.447Z,594.00
2023-05-02T05:43:28.127Z,599.00
2023-05-02T05:44:28.144Z,602.00
2023-05-02T05:45:28.176Z,610.00
2023-05-02T05:46:28.254Z,615.00
2023-05-02T05:47:28.578Z,616.00
2023-05-02T05:48:28.296Z,617.00
2023-05-02T05:49:28.495Z,622.00
2023-05-02T05:50:28.335Z,626.00
2023-05-02T05:51:28.381Z,630.00
2023-05-02T05:52:28.355Z,633.00
2023-05-02T05:53:28.362Z,641.00
2023-05-02T05:54:29.482Z,646.00
2023-05-02T05:55:28.599Z,652.00
2023-05-02T05:56:28.866Z,667.00
2023-05-02T05:57:29.469Z,676.00
2023-05-02T05:58:28.470Z,675.00
2023-05-02T05:59:28.531Z,686.00
2023-05-02T06:00:28.542Z,742.00
2023-05-02T06:01:28.517Z,768.00
2023-05-02T06:02:29.258Z,799.00
2023-05-02T06:03:28.682Z,806.00
2023-05-02T06:04:28.617Z,818.00
2023-05-02T06:05:28.612Z,869.00
2023-05-02T06:06:29.660Z,884.00
2023-05-02T06:07:28.592Z,891.00
2023-05-02T06:08:28.573Z,899.00
2023-05-02T06:09:28.578Z,905.00
2023-05-02T06:10:28.604Z,920.00
2023-05-02T06:11:28.604Z,935.00
2023-05-02T06:12:28.983Z,950.00
2023-05-02T06:13:28.682Z,968.00
2023-05-02T06:14:28.992Z,983.00
2023-05-02T06:15:29.759Z,1004.00
2023-05-02T06:16:28.880Z,1019.00
2023-05-02T06:17:29.016Z,1029.00
2023-05-02T06:18:28.911Z,1043.00
2023-05-02T06:19:28.960Z,1065.00
2023-05-02T06:20:29.469Z,1080.00
2023-05-02T06:21:29.108Z,1094.00
2023-05-02T06:22:29.135Z,1116.00
2023-05-02T06:23:29.465Z,1130.00
2023-05-02T06:24:29.735Z,1143.00
2023-05-02T06:25:29.806Z,1158.00
2023-05-02T06:26:29.467Z,1172.00
2023-05-02T06:27:30.692Z,1183.00
2023-05-02T06:28:30.066Z,1197.00
2023-05-02T06:29:29.400Z,1207.00
2023-05-02T06:30:29.459Z,1224.00
2023-05-02T06:31:29.427Z,1239.00
2023-05-02T06:32:29.380Z,1248.00
2023-05-02T06:33:29.375Z,1264.00
2023-05-02T06:34:29.384Z,1285.00
2023-05-02T06:35:29.462Z,1297.00
2023-05-02T06:36:28.379Z,1305.00
2023-05-02T06:37:29.369Z,1319.00
2023-05-02T06:38:29.354Z,1339.00
2023-05-02T06:39:29.330Z,1362.00
2023-05-02T06:40:29.323Z,1379.00
2023-05-02T06:41:29.325Z,1393.00
2023-05-02T06:42:29.456Z,1402.00
2023-05-02T06:43:29.425Z,1416.00
2023-05-02T06:44:29.965Z,1443.00
2023-05-02T06:45:29.540Z,1460.00
2023-05-02T06:46:29.635Z,1467.00
2023-05-02T06:47:30.010Z,1471.00
2023-05-02T06:48:29.710Z,1477.00
2023-05-02T06:49:29.962Z,1481.00
2023-05-02T06:50:29.822Z,1483.00
2023-05-02T06:51:29.893Z,1481.00
2023-05-02T06:52:29.966Z,1476.00
2023-05-02T06:53:32.359Z,1477.00
2023-05-02T06:54:30.000Z,1477.00
2023-05-02T06:55:29.981Z,1477.00
2023-05-02T06:56:29.988Z,1475.00
2023-05-02T06:57:30.195Z,1470.00
2023-05-02T06:58:30.463Z,1463.00
2023-05-02T06:59:29.958Z,1455.00
2023-05-02T07:00:29.980Z,1392.00
2023-05-02T07:01:30.046Z,1385.00
2023-05-02T07:02:29.961Z,1382.00
2023-05-02T07:03:29.970Z,1378.00
2023-05-02T07:04:30.044Z,1369.00
2023-05-02T07:05:29.942Z,1355.00
2023-05-02T07:06:29.981Z,1353.00
2023-05-02T07:07:29.896Z,1341.00
2023-05-02T07:08:29.895Z,1282.00
2023-05-02T07:09:29.996Z,1241.00
2023-05-02T07:10:29.867Z,1230.00
2023-05-02T07:11:29.871Z,1248.00
2023-05-02T07:12:29.973Z,1246.00
2023-05-02T07:13:29.853Z,1254.00
2023-05-02T07:14:29.972Z,1252.00
2023-05-02T07:15:29.841Z,1176.00
2023-05-02T07:16:29.888Z,1044.00
2023-05-02T07:17:30.029Z,1167.00
2023-05-02T07:18:29.814Z,1170.00
2023-05-02T07:19:30.806Z,1159.00
2023-05-02T07:20:29.803Z,1157.00
2023-05-02T07:21:29.801Z,1047.00
2023-05-02T07:22:29.993Z,1023.00
2023-05-02T07:23:29.967Z,1059.00
2023-05-02T07:24:29.803Z,1070.00
2023-05-02T07:25:30.017Z,1095.00
2023-05-02T07:26:29.803Z,1190.00
2023-05-02T07:27:30.005Z,1214.00
2023-05-02T07:28:29.770Z,1223.00
2023-05-02T07:29:29.770Z,1227.00
2023-05-02T07:30:30.002Z,1230.00
2023-05-02T07:31:30.100Z,1226.00
2023-05-02T07:32:29.814Z,1223.00
2023-05-02T07:33:30.514Z,1215.00
2023-05-02T07:34:29.735Z,1209.00
2023-05-02T07:35:29.986Z,1202.00
2023-05-02T07:36:29.765Z,1194.00
2023-05-02T07:37:30.607Z,1189.00
2023-05-02T07:38:29.702Z,1184.00
2023-05-02T07:39:29.714Z,1184.00
2023-05-02T07:40:29.713Z,1188.00
2023-05-02T07:41:30.051Z,1195.00
2023-05-02T07:42:29.719Z,1200.00
2023-05-02T07:43:29.697Z,1205.00
2023-05-02T07:44:30.171Z,1220.00
2023-05-02T07:45:30.013Z,1232.00
2023-05-02T07:46:29.718Z,1240.00
2023-05-02T07:47:30.654Z,1258.00
2023-05-02T07:48:30.021Z,1281.00
2023-05-02T07:49:29.643Z,1295.00
2023-05-02T07:50:29.624Z,1298.00
2023-05-02T07:51:29.665Z,1310.00
2023-05-02T07:52:30.002Z,1327.00
2023-05-02T07:53:30.291Z,1346.00
2023-05-02T07:54:29.595Z,1363.00
2023-05-02T07:55:29.600Z,1381.00
2023-05-02T07:56:29.684Z,1398.00
2023-05-02T07:57:29.781Z,1416.00
2023-05-02T07:58:29.988Z,1434.00
2023-05-02T07:59:30.002Z,1460.00
2023-05-02T08:00:29.859Z,1538.00
2023-05-02T08:01:29.910Z,1547.00
2023-05-02T08:02:30.136Z,1553.00
2023-05-02T08:03:30.117Z,1561.00
2023-05-02T08:04:30.538Z,1574.00
2023-05-02T08:05:30.504Z,1589.00
2023-05-02T08:06:30.262Z,1602.00
2023-05-02T08:07:30.493Z,1624.00
2023-05-02T08:08:30.354Z,1636.00
2023-05-02T08:09:30.402Z,1655.00
2023-05-02T08:10:30.492Z,1673.00
2023-05-02T08:11:30.529Z,1697.00
2023-05-02T08:12:30.597Z,1713.00
2023-05-02T08:13:30.698Z,1725.00
2023-05-02T08:14:30.994Z,1734.00
2023-05-02T08:15:31.010Z,1745.00
2023-05-02T08:16:30.881Z,1758.00
2023-05-02T08:17:30.900Z,1773.00
2023-05-02T08:18:30.955Z,1782.00
2023-05-02T08:19:31.006Z,1797.00
2023-05-02T08:20:31.503Z,1812.00
2023-05-02T08:21:31.095Z,1827.00
2023-05-02T08:22:31.138Z,1841.00
2023-05-02T08:23:31.362Z,1862.00
2023-05-02T08:24:31.261Z,1881.00
2023-05-02T08:25:31.266Z,1898.00
2023-05-02T08:26:31.319Z,1914.00
2023-05-02T08:27:31.527Z,1931.00
2023-05-02T08:28:31.405Z,1944.00
2023-05-02T08:29:31.475Z,1960.00
2023-05-02T08:30:31.502Z,1968.00
2023-05-02T08:31:32.150Z,1980.00
2023-05-02T08:32:32.030Z,2003.00
2023-05-02T08:33:32.390Z,2026.00
2023-05-02T08:34:31.659Z,2041.00
2023-05-02T08:35:31.711Z,2054.00
2023-05-02T08:36:31.737Z,2067.00
2023-05-02T08:37:32.010Z,2079.00
2023-05-02T08:38:32.570Z,2103.00
2023-05-02T08:39:31.843Z,2118.00
2023-05-02T08:40:41.425Z,2128.00
2023-05-02T08:41:31.902Z,2152.00
2023-05-02T08:42:31.872Z,2170.00
2023-05-02T08:43:31.870Z,2193.00
2023-05-02T08:44:32.011Z,2218.00
2023-05-02T08:45:31.878Z,2231.00
2023-05-02T08:46:32.186Z,2243.00
2023-05-02T08:47:31.911Z,2255.00
2023-05-02T08:48:31.822Z,2270.00
2023-05-02T08:49:32.014Z,2285.00
2023-05-02T08:50:31.806Z,2293.00
2023-05-02T08:51:32.006Z,2308.00
2023-05-02T08:52:31.783Z,2321.00
2023-05-02T08:53:31.804Z,2337.00
2023-05-02T08:54:31.775Z,2353.00
2023-05-02T08:55:32.012Z,2372.00
2023-05-02T08:56:31.769Z,2383.00
2023-05-02T08:57:31.766Z,2398.00
2023-05-02T08:58:32.017Z,2410.00
2023-05-02T08:59:31.789Z,2426.00
2023-05-02T09:00:31.801Z,2441.00
2023-05-02T09:01:31.902Z,2455.00
2023-05-02T09:02:31.868Z,2472.00
2023-05-02T09:03:32.018Z,2484.00
2023-05-02T09:04:31.958Z,2499.00
2023-05-02T09:05:32.015Z,2513.00
2023-05-02T09:06:31.972Z,2524.00
2023-05-02T09:07:31.964Z,2546.00
2023-05-02T09:08:32.054Z,2567.00
2023-05-02T09:09:32.022Z,2585.00
2023-05-02T09:10:32.043Z,2598.00
2023-05-02T09:11:32.522Z,2607.00
2023-05-02T09:12:32.063Z,2619.00
2023-05-02T09:13:32.095Z,2630.00
2023-05-02T09:14:32.109Z,2643.00
2023-05-02T09:15:32.512Z,2654.00
2023-05-02T09:16:32.193Z,2669.00
2023-05-02T09:17:32.233Z,2685.00
2023-05-02T09:18:32.194Z,2701.00
2023-05-02T09:19:32.521Z,2723.00
2023-05-02T09:20:32.540Z,2734.00
2023-05-02T09:21:32.235Z,2744.00
2023-05-02T09:22:32.236Z,2760.00
2023-05-02T09:23:32.255Z,2773.00
2023-05-02T09:24:32.523Z,2786.00
2023-05-02T09:25:32.519Z,2800.00
2023-05-02T09:26:32.356Z,2819.00
2023-05-02T09:27:32.296Z,2837.00
2023-05-02T09:28:32.547Z,2842.00
2023-05-02T09:29:32.296Z,2829.00
2023-05-02T09:30:32.526Z,2811.00
2023-05-02T09:31:54.110Z,2799.00
2023-05-02T09:32:32.350Z,2797.00
2023-05-02T09:33:32.361Z,2794.00
2023-05-02T09:34:33.126Z,2789.00
2023-05-02T09:35:32.556Z,2783.00
2023-05-02T09:36:32.527Z,2778.00
2023-05-02T09:37:32.271Z,2777.00
2023-05-02T09:38:32.262Z,2779.00
2023-05-02T09:39:32.530Z,2781.00
2023-05-02T09:40:32.240Z,2780.00
2023-05-02T09:41:32.244Z,2777.00
2023-05-02T09:42:32.245Z,2775.00
2023-05-02T09:43:32.527Z,2771.00
2023-05-02T09:44:32.929Z,2772.00
2023-05-02T09:45:32.218Z,2771.00
2023-05-02T09:46:32.277Z,2773.00
2023-05-02T09:47:32.217Z,2771.00
2023-05-02T09:48:32.189Z,2768.00
2023-05-02T09:49:32.204Z,2767.00
2023-05-02T09:50:32.971Z,2763.00
2023-05-02T09:51:32.169Z,2765.00
2023-05-02T09:52:32.157Z,2762.00
2023-05-02T09:53:32.526Z,2760.00
2023-05-02T09:54:32.235Z,2757.00
2023-05-02T09:55:32.281Z,2758.00
2023-05-02T09:56:32.328Z,2754.00
2023-05-02T09:57:32.352Z,2753.00
2023-05-02T09:58:32.406Z,2757.00
2023-05-02T09:59:32.434Z,2758.00
2023-05-02T10:00:31.534Z,2759.00
2023-05-02T10:01:32.582Z,2760.00
2023-05-02T10:02:31.608Z,2760.00
2023-05-02T10:03:33.035Z,2761.00
2023-05-02T10:04:32.847Z,2759.00
2023-05-02T10:05:32.741Z,2755.00
2023-05-02T10:06:32.879Z,2745.00
2023-05-02T10:07:32.827Z,2703.00
2023-05-02T10:08:33.036Z,1972.00
2023-05-02T10:09:33.023Z,1540.00
2023-05-02T10:10:32.988Z,1333.00
2023-05-02T10:11:32.998Z,1337.00
2023-05-02T10:12:33.031Z,1246.00
2023-05-02T10:13:33.072Z,1054.00
2023-05-02T10:14:33.581Z,995.00
2023-05-02T10:15:33.110Z,990.00
2023-05-02T10:16:33.326Z,968.00
2023-05-02T10:17:33.297Z,970.00
2023-05-02T10:18:33.545Z,953.00
2023-05-02T10:19:33.555Z,934.00
2023-05-02T10:20:33.588Z,869.00
2023-05-02T10:21:33.491Z,833.00
2023-05-02T10:22:33.521Z,804.00
2023-05-02T10:23:34.050Z,807.00
2023-05-02T10:24:33.626Z,819.00
2023-05-02T10:25:33.668Z,820.00
2023-05-02T10:26:33.731Z,811.00
2023-05-02T10:27:33.799Z,787.00
2023-05-02T10:28:34.063Z,769.00
2023-05-02T10:29:33.916Z,763.00
2023-05-02T10:30:34.062Z,768.00
2023-05-02T10:31:34.063Z,780.00
2023-05-02T10:32:34.203Z,808.00
2023-05-02T10:33:34.144Z,860.00
2023-05-02T10:34:34.194Z,890.00
2023-05-02T10:35:34.568Z,912.00
2023-05-02T10:36:34.251Z,941.00
2023-05-02T10:37:34.295Z,986.00
2023-05-02T10:38:34.274Z,1017.00
2023-05-02T10:39:34.285Z,1058.00
2023-05-02T10:40:34.401Z,1088.00
2023-05-02T10:41:34.291Z,1112.00
2023-05-02T10:42:34.329Z,1140.00
2023-05-02T10:43:34.371Z,1167.00
2023-05-02T10:44:34.557Z,1192.00
2023-05-02T10:45:34.454Z,1241.00
2023-05-02T10:46:34.661Z,1262.00
2023-05-02T10:47:35.589Z,1292.00
2023-05-02T10:48:35.059Z,1303.00
2023-05-02T10:49:34.665Z,1322.00
2023-05-02T10:50:35.079Z,1343.00
2023-05-02T10:51:34.780Z,1357.00
2023-05-02T10:52:34.847Z,1373.00
2023-05-02T10:53:35.080Z,1388.00
2023-05-02T10:54:34.914Z,1411.00
2023-05-02T10:55:34.958Z,1433.00
2023-05-02T10:56:35.049Z,1448.00
2023-05-02T10:57:35.043Z,1466.00
2023-05-02T10:58:35.083Z,1483.00
2023-05-02T10:59:35.115Z,1503.00
2023-05-02T11:00:35.604Z,1522.00
2023-05-02T11:01:35.201Z,1536.00
2023-05-02T11:02:35.700Z,1551.00
2023-05-02T11:03:35.267Z,1564.00
2023-05-02T11:04:35.267Z,1578.00
2023-05-02T11:05:35.600Z,1597.00
2023-05-02T11:06:35.352Z,1625.00
2023-05-02T11:07:35.353Z,1657.00
2023-05-02T11:08:35.368Z,1678.00
2023-05-02T11:09:35.447Z,1700.00
2023-05-02T11:10:35.566Z,1731.00
2023-05-02T11:11:35.484Z,1750.00
2023-05-02T11:12:35.441Z,1766.00
2023-05-02T11:13:35.555Z,1777.00
2023-05-02T11:14:35.557Z,1780.00
2023-05-02T11:15:35.528Z,1712.00
2023-05-02T11:16:35.563Z,1540.00
2023-05-02T11:17:35.616Z,1573.00
2023-05-02T11:18:36.073Z,1341.00
2023-05-02T11:19:35.666Z,1328.00
2023-05-02T11:20:36.111Z,1310.00
2023-05-02T11:21:35.802Z,1212.00
2023-05-02T11:22:39.025Z,1359.00
2023-05-02T11:23:36.256Z,1389.00
2023-05-02T11:24:35.782Z,1413.00
2023-05-02T11:25:36.118Z,1450.00
2023-05-02T11:26:35.764Z,1376.00
2023-05-02T11:27:35.761Z,1333.00
2023-05-02T11:28:36.069Z,1210.00
2023-05-02T11:29:35.751Z,1225.00
2023-05-02T11:30:36.084Z,1197.00
2023-05-02T11:31:35.801Z,1342.00
2023-05-02T11:32:35.819Z,1420.00
2023-05-02T11:33:35.717Z,1416.00
2023-05-02T11:34:35.718Z,1417.00
2023-05-02T11:35:35.778Z,1427.00
2023-05-02T11:36:36.102Z,1439.00
2023-05-02T11:37:35.914Z,1450.00
2023-05-02T11:38:36.078Z,1461.00
2023-05-02T11:39:36.022Z,1476.00
2023-05-02T11:40:36.075Z,1494.00
2023-05-02T11:41:36.147Z,1509.00
2023-05-02T11:42:36.164Z,1498.00
2023-05-02T11:43:36.582Z,1158.00
2023-05-02T11:44:36.273Z,1039.00
2023-05-02T11:45:36.348Z,999.00
2023-05-02T11:46:36.429Z,956.00
2023-05-02T11:47:36.443Z,908.00
2023-05-02T11:48:36.573Z,868.00
2023-05-02T11:49:36.571Z,834.00
2023-05-02T11:50:36.868Z,812.00
2023-05-02T11:51:36.629Z,792.00
2023-05-02T11:52:36.632Z,770.00
2023-05-02T11:53:37.076Z,750.00
2023-05-02T11:54:36.653Z,733.00
2023-05-02T11:55:37.141Z,771.00
2023-05-02T11:56:36.656Z,853.00
2023-05-02T11:57:36.678Z,892.00
2023-05-02T11:58:36.673Z,915.00
2023-05-02T11:59:36.653Z,923.00
2023-05-02T12:00:37.106Z,924.00
2023-05-02T12:01:36.790Z,925.00
2023-05-02T12:02:37.024Z,928.00
2023-05-02T12:03:37.193Z,933.00
2023-05-02T12:04:36.946Z,935.00
2023-05-02T12:05:37.013Z,945.00
2023-05-02T12:06:37.077Z,1025.00
2023-05-02T12:07:37.577Z,988.00
2023-05-02T12:08:37.155Z,986.00
2023-05-02T12:09:37.202Z,991.00
2023-05-02T12:10:37.719Z,986.00
2023-05-02T12:11:37.307Z,983.00
2023-05-02T12:12:37.375Z,982.00
2023-05-02T12:13:37.951Z,986.00
2023-05-02T12:14:37.418Z,991.00
2023-05-02T12:15:37.669Z,995.00
2023-05-02T12:16:37.614Z,1000.00
2023-05-02T12:17:38.126Z,1000.00
2023-05-02T12:18:37.611Z,1001.00